Florence, Vermont
Current Conditions -  °F | °C
As of 1:15 AM on Sunday 26 Oct 2014 (Local Time) from KRUT Reporting Station
Overcast Overcast  
Wind Chill: 48°   Ceiling: 6000
Heat Index: 48°   Visibility: 10mi
Dew Point: 45°   Wind: 3mph
Humidity: 87%   Direction: 180°S
Pressure: 29.47"   Gusts: NA
Location:  43.72°N, 73.06°W
Report Text: KRUT 260515Z 18003KT 10SM SCT046 OVC060 09/07 A2947 RMK AO1
Loading
Personal Weather Stations






























Interactive Weather Map New forecast layout! Learn more

10-Day Weather Forecast

Advertisements
Track Severe Weather on mobile